createdAt,value
2023-01-21T00:01:17.948Z,5.00
2023-01-21T00:03:46.668Z,5.01
2023-01-21T00:06:16.029Z,5.00
2023-01-21T00:08:44.163Z,4.98
2023-01-21T00:11:15.678Z,4.93
2023-01-21T00:13:45.359Z,4.92
2023-01-21T00:16:14.334Z,4.85
2023-01-21T00:18:42.831Z,4.84
2023-01-21T00:21:11.205Z,4.83
2023-01-21T00:23:39.125Z,4.78
2023-01-21T00:26:09.126Z,4.79
2023-01-21T00:28:39.135Z,4.73
2023-01-21T00:31:09.106Z,4.72
2023-01-21T00:33:37.436Z,4.68
2023-01-21T00:36:07.670Z,4.66
2023-01-21T00:38:35.968Z,4.68
2023-01-21T00:41:04.878Z,4.75
2023-01-21T00:43:33.514Z,4.79
2023-01-21T00:46:03.368Z,4.87
2023-01-21T00:48:31.575Z,4.94
2023-01-21T00:51:00.980Z,4.95
2023-01-21T00:53:29.948Z,4.93
2023-01-21T00:56:01.607Z,4.87
2023-01-21T00:58:30.483Z,4.84
2023-01-21T01:01:04.564Z,4.79
2023-01-21T01:03:32.968Z,4.73
2023-01-21T01:06:04.158Z,4.66
2023-01-21T01:08:32.416Z,4.61
2023-01-21T01:11:00.989Z,4.58
2023-01-21T01:13:29.386Z,4.55
2023-01-21T01:15:58.918Z,4.53
2023-01-21T01:18:30.091Z,4.49
2023-01-21T01:20:58.388Z,4.52
2023-01-21T01:23:26.801Z,4.56
2023-01-21T01:25:59.250Z,4.61
2023-01-21T01:28:27.777Z,4.71
2023-01-21T01:30:56.221Z,4.79
2023-01-21T01:33:24.694Z,4.86
2023-01-21T01:35:54.400Z,4.91
2023-01-21T01:38:23.911Z,4.89
2023-01-21T01:40:53.920Z,4.83
2023-01-21T01:43:24.448Z,4.76
2023-01-21T01:45:54.469Z,4.70
2023-01-21T01:48:28.724Z,4.63
2023-01-21T01:51:03.018Z,4.57
2023-01-21T01:53:32.614Z,4.53
2023-01-21T01:56:01.597Z,4.48
2023-01-21T01:58:32.179Z,4.45
2023-01-21T02:01:01.222Z,4.42
2023-01-21T02:03:46.387Z,4.39
2023-01-21T02:06:17.442Z,4.37
2023-01-21T02:08:46.900Z,4.37
2023-01-21T02:11:15.760Z,4.36
2023-01-21T02:13:50.008Z,4.39
2023-01-21T02:16:38.501Z,4.38
2023-01-21T02:19:38.135Z,4.39
2023-01-21T02:22:13.446Z,4.39
2023-01-21T02:25:32.190Z,4.40
2023-01-21T02:28:17.163Z,4.35
2023-01-21T02:31:03.291Z,4.33
2023-01-21T02:33:53.352Z,4.32
2023-01-21T02:36:39.136Z,4.32
2023-01-21T02:39:15.743Z,4.31
2023-01-21T02:41:57.943Z,4.31
2023-01-21T02:44:33.486Z,4.28
2023-01-21T02:47:08.354Z,4.25
2023-01-21T02:49:41.440Z,4.24
2023-01-21T02:52:09.836Z,4.23
2023-01-21T02:54:52.303Z,4.21
2023-01-21T02:57:37.397Z,4.20
2023-01-21T03:00:10.432Z,4.20
2023-01-21T03:03:08.412Z,4.19
2023-01-21T03:05:53.365Z,4.17
2023-01-21T03:08:23.845Z,4.20
2023-01-21T03:11:02.217Z,4.22
2023-01-21T03:13:53.734Z,4.26
2023-01-21T03:16:43.337Z,4.31
2023-01-21T03:19:14.855Z,4.33
2023-01-21T03:21:45.210Z,4.41
2023-01-21T03:24:17.012Z,4.45
2023-01-21T03:26:49.152Z,4.51
2023-01-21T03:29:20.684Z,4.56
2023-01-21T03:31:52.979Z,4.62
2023-01-21T03:34:23.780Z,4.70
2023-01-21T03:36:59.138Z,4.77
2023-01-21T03:39:37.576Z,4.82
2023-01-21T03:42:05.769Z,4.84
2023-01-21T03:44:34.758Z,4.80
2023-01-21T03:47:12.498Z,4.73
2023-01-21T03:49:45.242Z,4.64
2023-01-21T03:52:16.461Z,4.53
2023-01-21T03:54:44.632Z,4.46
2023-01-21T03:57:12.559Z,4.43
2023-01-21T03:59:40.579Z,4.43
2023-01-21T04:02:08.648Z,4.44
2023-01-21T04:04:36.683Z,4.44
2023-01-21T04:07:05.418Z,4.48
2023-01-21T04:09:34.805Z,4.51
2023-01-21T04:12:02.843Z,4.50
2023-01-21T04:14:30.883Z,4.43
2023-01-21T04:16:59.020Z,4.35
2023-01-21T04:19:27.270Z,4.25
2023-01-21T04:21:55.420Z,4.17
2023-01-21T04:24:23.470Z,4.10
2023-01-21T04:26:52.947Z,4.05
2023-01-21T04:29:23.714Z,4.08
2023-01-21T04:31:51.872Z,4.14
2023-01-21T04:34:20.048Z,4.21
2023-01-21T04:36:49.420Z,4.34
2023-01-21T04:39:17.726Z,4.42
2023-01-21T04:41:45.989Z,4.54
2023-01-21T04:44:15.604Z,4.62
2023-01-21T04:46:44.292Z,4.72
2023-01-21T04:49:12.459Z,4.81
2023-01-21T04:51:40.635Z,4.88
2023-01-21T04:54:10.652Z,4.94
2023-01-21T04:56:38.880Z,5.00
2023-01-21T04:59:07.003Z,5.05
2023-01-21T05:01:36.664Z,5.07
2023-01-21T05:04:04.902Z,5.12
2023-01-21T05:06:32.926Z,5.15
2023-01-21T05:09:00.883Z,5.16
2023-01-21T05:11:28.851Z,5.13
2023-01-21T05:13:56.988Z,5.07
2023-01-21T05:16:24.968Z,5.03
2023-01-21T05:18:54.292Z,4.98
2023-01-21T05:21:22.536Z,4.93
2023-01-21T05:23:50.518Z,4.86
2023-01-21T05:26:19.483Z,4.83
2023-01-21T05:28:47.447Z,4.83
2023-01-21T05:31:15.533Z,4.85
2023-01-21T05:33:46.099Z,4.89
2023-01-21T05:36:18.169Z,4.95
2023-01-21T05:38:46.254Z,4.99
2023-01-21T05:41:14.308Z,5.04
2023-01-21T05:43:42.408Z,5.08
2023-01-21T05:46:10.788Z,5.13
2023-01-21T05:48:39.125Z,5.16
2023-01-21T05:51:07.509Z,5.22
2023-01-21T05:53:37.060Z,5.22
2023-01-21T05:56:05.867Z,5.24
2023-01-21T05:58:33.920Z,5.25
2023-01-21T06:01:02.012Z,5.23
2023-01-21T06:03:30.322Z,5.23
2023-01-21T06:05:58.640Z,5.19
2023-01-21T06:08:26.595Z,5.14
2023-01-21T06:10:56.764Z,5.06
2023-01-21T06:13:26.482Z,4.97
2023-01-21T06:15:56.108Z,4.87
2023-01-21T06:18:24.912Z,4.80
2023-01-21T06:20:53.094Z,4.80
2023-01-21T06:23:22.391Z,4.80
2023-01-21T06:25:51.004Z,4.82
2023-01-21T06:28:20.660Z,4.87
2023-01-21T06:30:48.735Z,4.92
2023-01-21T06:33:16.686Z,4.99
2023-01-21T06:35:44.701Z,5.04
2023-01-21T06:38:12.698Z,5.08
2023-01-21T06:40:40.800Z,5.11
2023-01-21T06:43:09.691Z,5.16
2023-01-21T06:45:39.452Z,5.17
2023-01-21T06:48:07.608Z,5.21
2023-01-21T06:50:35.891Z,5.26
2023-01-21T06:53:04.071Z,5.27
2023-01-21T06:55:32.142Z,5.29
2023-01-21T06:58:00.124Z,5.23
2023-01-21T07:00:28.299Z,5.18
2023-01-21T07:03:01.699Z,5.12
2023-01-21T07:05:29.747Z,5.10
2023-01-21T07:07:59.768Z,5.07
2023-01-21T07:10:27.727Z,5.03
2023-01-21T07:12:55.802Z,4.98
2023-01-21T07:15:23.948Z,4.90
2023-01-21T07:17:53.161Z,4.84
2023-01-21T07:20:22.801Z,4.77
2023-01-21T07:22:50.754Z,4.73
2023-01-21T07:25:19.172Z,4.68
2023-01-21T07:27:48.033Z,4.63
2023-01-21T07:30:19.253Z,4.61
2023-01-21T07:32:47.600Z,4.68
2023-01-21T07:35:16.561Z,4.73
2023-01-21T07:37:46.183Z,4.81
2023-01-21T07:40:14.781Z,4.83
2023-01-21T07:42:43.335Z,4.83
2023-01-21T07:45:12.103Z,4.75
2023-01-21T07:47:40.619Z,4.69
2023-01-21T07:50:09.970Z,4.63
2023-01-21T07:52:38.188Z,4.57
2023-01-21T07:55:11.107Z,4.56
2023-01-21T07:57:40.837Z,4.56
2023-01-21T08:00:10.023Z,4.55
2023-01-21T08:02:38.367Z,4.59
2023-01-21T08:05:07.294Z,4.61
2023-01-21T08:07:35.367Z,4.61
2023-01-21T08:10:03.744Z,4.59
2023-01-21T08:12:33.251Z,4.58
2023-01-21T08:15:01.312Z,4.54
2023-01-21T08:17:29.765Z,4.48
2023-01-21T08:19:58.000Z,4.46
2023-01-21T08:22:26.981Z,4.47
2023-01-21T08:24:55.421Z,4.47
2023-01-21T08:27:24.036Z,4.45
2023-01-21T08:29:53.573Z,4.48
2023-01-21T08:32:21.608Z,4.50
2023-01-21T08:34:50.987Z,4.50
2023-01-21T08:37:19.002Z,4.49
2023-01-21T08:39:47.256Z,4.48
2023-01-21T08:42:15.354Z,4.48
2023-01-21T08:44:46.158Z,4.49
2023-01-21T08:47:15.762Z,4.53
2023-01-21T08:49:43.879Z,4.61
2023-01-21T08:52:12.468Z,4.68
2023-01-21T08:54:42.700Z,4.74
2023-01-21T08:57:11.674Z,4.83
2023-01-21T08:59:40.046Z,4.93
2023-01-21T09:02:08.685Z,5.01
2023-01-21T09:04:38.334Z,5.11
2023-01-21T09:07:06.786Z,5.21
2023-01-21T09:09:35.539Z,5.31
2023-01-21T09:12:03.573Z,5.40
2023-01-21T09:14:31.618Z,5.50
2023-01-21T09:16:59.856Z,5.58
2023-01-21T09:19:28.269Z,5.64
2023-01-21T09:21:57.841Z,5.69
2023-01-21T09:24:26.181Z,5.77
2023-01-21T09:26:55.393Z,5.81
2023-01-21T09:29:23.520Z,5.86
2023-01-21T09:31:51.766Z,5.90
2023-01-21T09:34:20.149Z,5.97
2023-01-21T09:36:48.248Z,6.02
2023-01-21T09:39:18.756Z,6.06
2023-01-21T09:41:51.609Z,6.10
2023-01-21T09:44:26.126Z,6.17
2023-01-21T09:46:59.840Z,6.24
2023-01-21T09:49:32.864Z,6.29
2023-01-21T09:52:10.255Z,6.36
2023-01-21T09:54:40.809Z,6.44
2023-01-21T09:57:38.172Z,6.50
2023-01-21T10:00:34.793Z,6.56
2023-01-21T10:03:14.694Z,6.63
2023-01-21T10:06:09.739Z,6.69
2023-01-21T10:08:53.702Z,6.77
2023-01-21T10:11:34.893Z,6.84
2023-01-21T10:14:17.175Z,6.90
2023-01-21T10:16:53.851Z,6.96
2023-01-21T10:19:28.386Z,7.02
2023-01-21T10:22:01.658Z,7.07
2023-01-21T10:24:34.644Z,7.13
2023-01-21T10:27:04.313Z,7.17
2023-01-21T10:29:36.047Z,7.21
2023-01-21T10:32:07.344Z,7.29
2023-01-21T10:34:41.359Z,7.36
2023-01-21T10:37:20.430Z,7.40
2023-01-21T10:40:00.403Z,7.46
2023-01-21T10:42:51.653Z,7.54
2023-01-21T10:45:30.260Z,7.55
2023-01-21T10:48:05.419Z,7.61
2023-01-21T10:50:46.157Z,7.66
2023-01-21T10:53:23.728Z,7.74
2023-01-21T10:56:01.934Z,7.78
2023-01-21T10:58:37.079Z,7.88
2023-01-21T11:01:09.061Z,7.88
2023-01-21T11:03:42.668Z,7.95
2023-01-21T11:06:14.861Z,8.05
2023-01-21T11:08:46.521Z,8.11
2023-01-21T11:11:16.829Z,8.18
2023-01-21T11:13:46.574Z,8.26
2023-01-21T11:16:14.744Z,8.34
2023-01-21T11:18:44.216Z,8.44
2023-01-21T11:21:20.027Z,8.50
2023-01-21T11:23:55.545Z,8.59
2023-01-21T11:26:28.067Z,8.68
2023-01-21T11:29:16.168Z,8.74
2023-01-21T11:31:48.714Z,8.82
2023-01-21T11:34:18.929Z,8.88
2023-01-21T11:36:58.627Z,8.94
2023-01-21T11:39:28.476Z,9.01
2023-01-21T11:41:58.712Z,9.08
2023-01-21T11:44:28.305Z,9.14
2023-01-21T11:46:56.433Z,9.21
2023-01-21T11:49:30.035Z,9.26
2023-01-21T11:52:15.384Z,9.31
2023-01-21T11:54:44.188Z,9.36
2023-01-21T11:57:32.825Z,9.42
2023-01-21T12:00:13.700Z,9.45
2023-01-21T12:02:45.081Z,9.48
2023-01-21T12:05:20.432Z,9.51
2023-01-21T12:07:52.563Z,9.58
2023-01-21T12:10:27.897Z,9.61
2023-01-21T12:13:15.220Z,9.68
2023-01-21T12:16:06.421Z,9.72
2023-01-21T12:18:49.446Z,9.80
2023-01-21T12:21:30.691Z,9.82
2023-01-21T12:24:13.563Z,9.87
2023-01-21T12:26:46.617Z,9.90
2023-01-21T12:29:33.827Z,9.92
2023-01-21T12:32:11.327Z,9.96
2023-01-21T12:34:45.569Z,10.00
2023-01-21T12:37:19.462Z,10.05
2023-01-21T12:39:50.215Z,10.11
2023-01-21T12:42:22.594Z,10.17
2023-01-21T12:44:54.339Z,10.22
2023-01-21T12:47:34.087Z,10.26
2023-01-21T12:50:18.885Z,10.31
2023-01-21T12:52:58.856Z,10.38
2023-01-21T12:55:33.465Z,10.42
2023-01-21T12:58:07.137Z,10.43
2023-01-21T13:00:39.113Z,10.47
2023-01-21T13:03:22.426Z,10.52
2023-01-21T13:05:56.170Z,10.56
2023-01-21T13:08:36.959Z,10.60
2023-01-21T13:11:14.148Z,10.63
2023-01-21T13:13:49.871Z,10.67
2023-01-21T13:16:18.608Z,10.70
2023-01-21T13:18:54.218Z,10.71
2023-01-21T13:21:33.022Z,10.73
2023-01-21T13:24:15.413Z,10.78
2023-01-21T13:26:51.049Z,10.82
2023-01-21T13:29:26.689Z,10.87
2023-01-21T13:32:11.422Z,10.90
2023-01-21T13:34:52.179Z,10.94
2023-01-21T13:37:27.318Z,10.97
2023-01-21T13:40:19.896Z,11.07
2023-01-21T13:42:57.387Z,11.19
2023-01-21T13:45:33.832Z,11.30
2023-01-21T13:48:37.497Z,11.43
2023-01-21T13:51:26.061Z,11.53
2023-01-21T13:54:47.764Z,11.65
2023-01-21T13:57:44.700Z,11.77
2023-01-21T14:00:18.543Z,12.00
2023-01-21T14:02:56.813Z,12.21
2023-01-21T14:05:31.270Z,12.40
2023-01-21T14:08:07.557Z,12.62
2023-01-21T14:10:40.653Z,12.80
2023-01-21T14:13:37.364Z,12.89
2023-01-21T14:16:37.574Z,12.89
2023-01-21T14:19:24.228Z,12.87
2023-01-21T14:22:09.352Z,12.81
2023-01-21T14:24:49.816Z,12.75
2023-01-21T14:27:25.871Z,12.72
2023-01-21T14:29:58.655Z,12.72
2023-01-21T14:32:33.061Z,12.74
2023-01-21T14:35:14.988Z,12.77
2023-01-21T14:37:45.421Z,12.85
2023-01-21T14:40:19.683Z,12.96
2023-01-21T14:42:50.389Z,13.18
2023-01-21T14:45:22.359Z,13.04
2023-01-21T14:47:52.887Z,12.71
2023-01-21T14:50:47.195Z,13.17
2023-01-21T14:53:21.688Z,13.73
2023-01-21T14:56:10.913Z,14.43
2023-01-21T14:58:40.119Z,15.23
2023-01-21T15:01:08.470Z,15.94
2023-01-21T15:03:48.888Z,16.71
2023-01-21T15:06:23.374Z,17.43
2023-01-21T15:08:54.716Z,18.07
2023-01-21T15:11:30.520Z,18.67
2023-01-21T15:14:13.287Z,19.17
2023-01-21T15:16:42.713Z,19.65
2023-01-21T15:19:24.885Z,20.32
2023-01-21T15:22:19.342Z,20.51
2023-01-21T15:25:18.672Z,20.33
2023-01-21T15:28:24.328Z,19.93
2023-01-21T15:31:01.238Z,19.23
2023-01-21T15:33:30.865Z,18.62
2023-01-21T15:36:01.371Z,18.12
2023-01-21T15:38:29.670Z,17.62
2023-01-21T15:41:03.972Z,17.30
2023-01-21T15:43:36.913Z,16.97
2023-01-21T15:46:22.861Z,16.44
2023-01-21T15:49:03.479Z,15.87
2023-01-21T15:51:47.370Z,15.32
2023-01-21T15:54:31.844Z,14.82
2023-01-21T15:57:16.117Z,14.38
2023-01-21T16:00:04.598Z,13.84
2023-01-21T16:02:43.281Z,13.40
2023-01-21T16:05:23.471Z,13.03
2023-01-21T16:08:01.860Z,12.71
2023-01-21T16:10:38.643Z,12.39
2023-01-21T16:13:16.182Z,12.13
2023-01-21T16:16:01.136Z,11.92
2023-01-21T16:18:36.862Z,11.64
2023-01-21T16:21:05.895Z,11.41
2023-01-21T16:23:38.363Z,11.23
2023-01-21T16:26:06.862Z,11.07
2023-01-21T16:28:49.271Z,10.87
2023-01-21T16:31:17.694Z,10.70
2023-01-21T16:33:48.084Z,10.55
2023-01-21T16:36:16.747Z,10.42
2023-01-21T16:38:47.125Z,10.26
2023-01-21T16:41:27.722Z,10.14
2023-01-21T16:43:59.539Z,9.99
2023-01-21T16:46:32.702Z,9.89
2023-01-21T16:49:04.848Z,9.77
2023-01-21T16:51:36.088Z,9.69
2023-01-21T16:54:24.395Z,9.58
2023-01-21T16:56:55.940Z,9.47
2023-01-21T16:59:28.037Z,9.39
2023-01-21T17:01:57.508Z,9.36
2023-01-21T17:04:27.295Z,9.28
2023-01-21T17:06:55.487Z,9.24
2023-01-21T17:09:29.507Z,9.19
2023-01-21T17:11:59.626Z,9.16
2023-01-21T17:14:30.288Z,9.10
2023-01-21T17:17:01.953Z,9.09
2023-01-21T17:19:35.579Z,9.05
2023-01-21T17:22:11.848Z,9.06
2023-01-21T17:24:44.158Z,9.06
2023-01-21T17:27:17.804Z,9.06
2023-01-21T17:29:46.031Z,9.08
2023-01-21T17:32:32.387Z,9.08
2023-01-21T17:35:12.623Z,9.11
2023-01-21T17:37:47.150Z,9.13
2023-01-21T17:40:28.492Z,9.15
2023-01-21T17:42:57.439Z,9.18
2023-01-21T17:45:31.481Z,9.21
2023-01-21T17:48:09.360Z,9.24
2023-01-21T17:50:46.819Z,9.26
2023-01-21T17:53:21.393Z,9.28
2023-01-21T17:55:59.357Z,9.31
2023-01-21T17:58:48.481Z,9.32
2023-01-21T18:01:17.358Z,9.32
2023-01-21T18:03:45.501Z,9.31
2023-01-21T18:06:20.882Z,9.31
2023-01-21T18:08:50.556Z,9.35
2023-01-21T18:11:19.860Z,9.37
2023-01-21T18:13:48.507Z,9.41
2023-01-21T18:16:17.182Z,9.43
2023-01-21T18:18:45.692Z,9.46
2023-01-21T18:21:21.108Z,9.43
2023-01-21T18:23:50.177Z,9.44
2023-01-21T18:26:26.826Z,9.43
2023-01-21T18:28:55.030Z,9.44
2023-01-21T18:31:23.350Z,9.43
2023-01-21T18:33:51.427Z,9.42
2023-01-21T18:36:21.031Z,9.42
2023-01-21T18:38:49.130Z,9.39
2023-01-21T18:41:17.260Z,9.39
2023-01-21T18:43:47.154Z,9.41
2023-01-21T18:46:16.502Z,9.41
2023-01-21T18:48:44.707Z,9.40
2023-01-21T18:51:14.350Z,9.42
2023-01-21T18:53:43.825Z,9.43
2023-01-21T18:56:14.836Z,9.40
2023-01-21T18:58:43.341Z,9.39
2023-01-21T19:01:22.669Z,9.38
2023-01-21T19:03:53.663Z,9.38
2023-01-21T19:06:23.813Z,9.36
2023-01-21T19:08:55.434Z,9.34
2023-01-21T19:11:27.655Z,9.32
2023-01-21T19:13:55.701Z,9.30
2023-01-21T19:16:24.036Z,9.24
2023-01-21T19:18:52.045Z,9.19
2023-01-21T19:21:20.242Z,9.13
2023-01-21T19:23:48.308Z,9.08
2023-01-21T19:26:18.327Z,9.00
2023-01-21T19:28:46.559Z,8.92
2023-01-21T19:31:15.087Z,8.85
2023-01-21T19:33:46.139Z,8.79
2023-01-21T19:36:16.919Z,8.73
2023-01-21T19:38:55.276Z,8.67
2023-01-21T19:41:25.338Z,8.64
2023-01-21T19:43:53.579Z,8.62
2023-01-21T19:46:23.905Z,8.61
2023-01-21T19:48:53.756Z,8.61
2023-01-21T19:51:22.005Z,8.61
2023-01-21T19:53:50.003Z,8.59
2023-01-21T19:56:23.647Z,8.61
2023-01-21T19:58:53.488Z,8.61
2023-01-21T20:01:21.622Z,8.63
2023-01-21T20:03:59.701Z,8.63
2023-01-21T20:06:31.320Z,8.65
2023-01-21T20:09:01.289Z,8.66
2023-01-21T20:11:29.208Z,8.67
2023-01-21T20:13:58.704Z,8.70
2023-01-21T20:16:27.502Z,8.74
2023-01-21T20:18:56.530Z,8.77
2023-01-21T20:21:25.609Z,8.78
2023-01-21T20:23:53.761Z,8.82
2023-01-21T20:26:26.549Z,8.83
2023-01-21T20:28:54.864Z,8.87
2023-01-21T20:31:24.764Z,8.92
2023-01-21T20:33:53.081Z,8.95
2023-01-21T20:36:25.211Z,8.95
2023-01-21T20:38:55.142Z,8.96
2023-01-21T20:41:23.392Z,9.00
2023-01-21T20:43:51.465Z,9.01
2023-01-21T20:46:22.564Z,9.05
2023-01-21T20:49:03.389Z,9.06
2023-01-21T20:51:31.994Z,9.08
2023-01-21T20:54:00.187Z,9.09
2023-01-21T20:56:30.170Z,9.11
2023-01-21T20:58:58.529Z,9.11
2023-01-21T21:01:28.611Z,9.14
2023-01-21T21:03:58.112Z,9.16
2023-01-21T21:06:28.965Z,9.18
2023-01-21T21:08:57.179Z,9.18
2023-01-21T21:11:25.332Z,9.19
2023-01-21T21:13:53.335Z,9.18
2023-01-21T21:16:23.444Z,9.18
2023-01-21T21:18:52.230Z,9.20
2023-01-21T21:21:23.673Z,9.19
2023-01-21T21:23:57.211Z,9.14
2023-01-21T21:26:26.664Z,9.14
2023-01-21T21:28:55.838Z,9.13
2023-01-21T21:31:24.772Z,9.15
2023-01-21T21:33:52.829Z,9.17
2023-01-21T21:36:24.673Z,9.19
2023-01-21T21:38:55.799Z,9.21
2023-01-21T21:41:43.612Z,9.23
2023-01-21T21:44:12.762Z,9.20
2023-01-21T21:46:58.942Z,9.22
2023-01-21T21:49:27.347Z,9.21
2023-01-21T21:51:57.536Z,9.21
2023-01-21T21:54:25.749Z,9.22
2023-01-21T21:56:53.794Z,9.23
2023-01-21T21:59:21.759Z,9.25
2023-01-21T22:01:49.914Z,9.27
2023-01-21T22:04:17.960Z,9.25
2023-01-21T22:06:45.927Z,9.25
2023-01-21T22:09:15.295Z,9.23
2023-01-21T22:11:43.417Z,9.24
2023-01-21T22:14:14.706Z,9.24
2023-01-21T22:16:42.895Z,9.25
2023-01-21T22:19:10.963Z,9.24
2023-01-21T22:21:39.299Z,9.28
2023-01-21T22:24:08.357Z,9.29
2023-01-21T22:26:37.828Z,9.28
2023-01-21T22:29:06.767Z,9.31
2023-01-21T22:31:35.357Z,9.29
2023-01-21T22:34:03.491Z,9.31
2023-01-21T22:36:32.708Z,9.30
2023-01-21T22:39:01.207Z,9.30
2023-01-21T22:41:31.819Z,9.31
2023-01-21T22:44:01.275Z,9.31
2023-01-21T22:46:31.464Z,9.29
2023-01-21T22:48:59.688Z,9.29
2023-01-21T22:51:28.263Z,9.28
2023-01-21T22:53:56.376Z,9.30
2023-01-21T22:56:49.663Z,9.30
2023-01-21T22:59:15.803Z,9.30
2023-01-21T23:01:44.014Z,9.28
2023-01-21T23:04:12.152Z,9.26
2023-01-21T23:06:40.264Z,9.27
2023-01-21T23:09:11.509Z,9.27
2023-01-21T23:11:42.137Z,9.28
2023-01-21T23:14:11.817Z,9.27
2023-01-21T23:16:41.372Z,9.32
2023-01-21T23:19:09.403Z,9.32
2023-01-21T23:21:38.492Z,9.32
2023-01-21T23:24:07.085Z,9.33
2023-01-21T23:26:35.501Z,9.36
2023-01-21T23:29:03.841Z,9.38
2023-01-21T23:31:33.042Z,9.36
2023-01-21T23:34:03.567Z,9.37
2023-01-21T23:36:32.053Z,9.37
2023-01-21T23:38:59.987Z,9.39
2023-01-21T23:41:28.036Z,9.40
2023-01-21T23:43:59.753Z,9.38
2023-01-21T23:46:30.422Z,9.38
2023-01-21T23:48:58.481Z,9.39
2023-01-21T23:51:27.927Z,9.39
2023-01-21T23:53:57.794Z,9.38
2023-01-21T23:56:27.382Z,9.35
2023-01-21T23:58:55.449Z,9.32
